Miller, Nebraska
Current Conditions -  °F | °C
As of 11:55 AM on Tuesday 21 Oct 2014 (Local Time) from KLXN Reporting Station
Clear Clear  
Wind Chill: 71°   Ceiling: Unl
Heat Index: 71°   Visibility: 10mi
Dew Point: 44°   Wind: 18mph
Humidity: 38%   Direction: 160°SSE
Pressure: 30.05"   Gusts: 24mph
Location:  40.93°N, 99.39°W
Report Text: KLXN 211655Z AUTO 16016G21KT 10SM CLR 22/07 A3005 RMK AO2 T02150066
Loading
Personal Weather Stations






























Interactive Weather Map New forecast layout! Learn more

10-Day Weather Forecast

Advertisements
Track Severe Weather on mobile